createdAt,value
2023-03-11T00:01:28.682Z,10.71
2023-03-11T00:03:57.798Z,10.64
2023-03-11T00:06:26.984Z,10.81
2023-03-11T00:08:55.910Z,10.85
2023-03-11T00:11:25.328Z,10.80
2023-03-11T00:13:54.452Z,10.85
2023-03-11T00:16:24.969Z,10.79
2023-03-11T00:18:54.383Z,10.82
2023-03-11T00:21:23.453Z,10.94
2023-03-11T00:23:52.515Z,10.95
2023-03-11T00:26:21.726Z,10.95
2023-03-11T00:28:50.880Z,10.90
2023-03-11T00:31:20.507Z,10.86
2023-03-11T00:33:50.971Z,11.01
2023-03-11T00:36:25.196Z,11.02
2023-03-11T00:38:54.702Z,10.97
2023-03-11T00:41:23.750Z,10.92
2023-03-11T00:43:53.043Z,10.84
2023-03-11T00:46:22.228Z,10.80
2023-03-11T00:48:54.040Z,10.82
2023-03-11T00:51:23.139Z,10.75
2023-03-11T00:53:52.300Z,10.68
2023-03-11T00:56:21.479Z,10.67
2023-03-11T00:58:50.663Z,10.66
2023-03-11T01:01:21.660Z,10.64
2023-03-11T01:03:52.579Z,10.59
2023-03-11T01:06:22.472Z,10.62
2023-03-11T01:08:51.586Z,10.63
2023-03-11T01:11:20.585Z,10.59
2023-03-11T01:13:49.650Z,10.55
2023-03-11T01:16:18.649Z,10.48
2023-03-11T01:18:47.744Z,10.50
2023-03-11T01:21:20.988Z,10.38
2023-03-11T01:23:49.631Z,10.29
2023-03-11T01:26:18.548Z,10.15
2023-03-11T01:28:47.548Z,10.03
2023-03-11T01:31:16.566Z,10.06
2023-03-11T01:33:45.848Z,10.10
2023-03-11T01:36:15.031Z,10.12
2023-03-11T01:38:45.583Z,10.14
2023-03-11T01:41:15.014Z,10.18
2023-03-11T01:43:54.908Z,10.23
2023-03-11T01:46:28.798Z,10.27
2023-03-11T01:49:00.199Z,10.22
2023-03-11T01:51:35.466Z,10.24
2023-03-11T01:54:08.681Z,10.25
2023-03-11T01:56:39.104Z,10.24
2023-03-11T01:59:09.864Z,10.31
2023-03-11T02:01:49.708Z,10.14
2023-03-11T02:04:19.161Z,10.13
2023-03-11T02:06:51.403Z,10.16
2023-03-11T02:09:24.391Z,10.18
2023-03-11T02:11:53.671Z,10.12
2023-03-11T02:14:23.389Z,10.16
2023-03-11T02:16:55.280Z,10.12
2023-03-11T02:19:31.775Z,10.15
2023-03-11T02:22:02.282Z,10.18
2023-03-11T02:24:40.609Z,10.16
2023-03-11T02:27:16.476Z,10.14
2023-03-11T02:29:50.281Z,10.12
2023-03-11T02:32:20.616Z,10.11
2023-03-11T02:34:49.695Z,10.06
2023-03-11T02:37:20.103Z,10.06
2023-03-11T02:39:56.825Z,10.03
2023-03-11T02:42:29.921Z,9.99
2023-03-11T02:45:02.849Z,10.03
2023-03-11T02:47:33.995Z,10.12
2023-03-11T02:50:02.918Z,10.12
2023-03-11T02:52:35.128Z,10.13
2023-03-11T02:55:04.420Z,10.16
2023-03-11T02:57:34.915Z,10.11
2023-03-11T03:00:11.424Z,10.10
2023-03-11T03:02:41.459Z,10.12
2023-03-11T03:05:11.864Z,10.07
2023-03-11T03:07:41.204Z,10.11
2023-03-11T03:10:11.769Z,10.08
2023-03-11T03:12:43.038Z,10.04
2023-03-11T03:15:13.743Z,10.07
2023-03-11T03:17:43.285Z,10.04
2023-03-11T03:20:14.306Z,10.04
2023-03-11T03:22:48.408Z,10.04
2023-03-11T03:25:19.879Z,10.09
2023-03-11T03:27:51.015Z,10.11
2023-03-11T03:30:21.268Z,10.12
2023-03-11T03:32:50.455Z,10.12
2023-03-11T03:35:21.778Z,10.13
2023-03-11T03:37:59.186Z,10.13
2023-03-11T03:40:28.435Z,10.13
2023-03-11T03:43:01.011Z,10.01
2023-03-11T03:45:32.425Z,9.84
2023-03-11T03:48:01.834Z,10.00
2023-03-11T03:50:34.957Z,10.05
2023-03-11T03:53:04.098Z,9.90
2023-03-11T03:55:33.627Z,9.91
2023-03-11T03:58:04.935Z,9.90
2023-03-11T04:00:36.204Z,9.99
2023-03-11T04:03:05.822Z,9.95
2023-03-11T04:05:45.754Z,9.89
2023-03-11T04:08:16.419Z,9.91
2023-03-11T04:10:46.090Z,9.95
2023-03-11T04:13:16.525Z,9.96
2023-03-11T04:15:46.987Z,9.94
2023-03-11T04:18:16.064Z,9.94
2023-03-11T04:20:45.039Z,9.99
2023-03-11T04:23:15.287Z,9.94
2023-03-11T04:25:44.567Z,9.86
2023-03-11T04:28:13.869Z,9.91
2023-03-11T04:30:44.490Z,9.89
2023-03-11T04:33:13.822Z,10.04
2023-03-11T04:35:46.206Z,9.92
2023-03-11T04:38:15.813Z,9.96
2023-03-11T04:40:44.848Z,9.89
2023-03-11T04:43:14.084Z,9.76
2023-03-11T04:45:51.722Z,9.81
2023-03-11T04:48:21.207Z,9.74
2023-03-11T04:50:50.759Z,9.72
2023-03-11T04:53:19.785Z,9.71
2023-03-11T04:55:49.096Z,9.73
2023-03-11T04:58:18.432Z,9.73
2023-03-11T05:00:50.430Z,9.73
2023-03-11T05:03:19.754Z,9.75
2023-03-11T05:05:49.248Z,9.95
2023-03-11T05:08:20.653Z,10.01
2023-03-11T05:10:49.690Z,9.99
2023-03-11T05:13:18.772Z,10.01
2023-03-11T05:15:48.056Z,10.15
2023-03-11T05:18:19.370Z,10.09
2023-03-11T05:20:50.760Z,10.07
2023-03-11T05:23:23.068Z,10.02
2023-03-11T05:25:52.154Z,10.16
2023-03-11T05:28:21.404Z,10.17
2023-03-11T05:30:54.233Z,10.25
2023-03-11T05:33:25.550Z,10.22
2023-03-11T05:35:56.008Z,10.26
2023-03-11T05:38:25.120Z,10.31
2023-03-11T05:40:54.305Z,10.33
2023-03-11T05:43:23.471Z,10.33
2023-03-11T05:45:56.588Z,10.35
2023-03-11T05:48:27.242Z,10.41
2023-03-11T05:50:56.574Z,10.40
2023-03-11T05:53:26.565Z,10.36
2023-03-11T05:55:59.595Z,10.40
2023-03-11T05:58:33.697Z,10.38
2023-03-11T06:01:02.541Z,10.34
2023-03-11T06:03:33.150Z,10.32
2023-03-11T06:06:02.197Z,10.34
2023-03-11T06:08:31.299Z,10.32
2023-03-11T06:11:03.500Z,10.35
2023-03-11T06:13:32.705Z,10.35
2023-03-11T06:16:01.770Z,10.43
2023-03-11T06:18:32.502Z,10.44
2023-03-11T06:21:03.610Z,10.50
2023-03-11T06:23:34.420Z,10.45
2023-03-11T06:26:06.598Z,10.58
2023-03-11T06:28:40.873Z,10.61
2023-03-11T06:31:11.052Z,10.65
2023-03-11T06:33:42.037Z,10.60
2023-03-11T06:36:13.910Z,10.60
2023-03-11T06:38:43.388Z,10.51
2023-03-11T06:41:12.614Z,10.53
2023-03-11T06:43:41.859Z,10.64
2023-03-11T06:46:12.633Z,10.64
2023-03-11T06:48:45.978Z,10.57
2023-03-11T06:51:17.195Z,10.74
2023-03-11T06:53:49.639Z,10.73
2023-03-11T06:56:20.679Z,10.93
2023-03-11T06:58:55.653Z,10.99
2023-03-11T07:01:28.379Z,11.07
2023-03-11T07:04:00.773Z,11.11
2023-03-11T07:06:30.836Z,11.02
2023-03-11T07:09:22.744Z,11.19
2023-03-11T07:11:55.725Z,11.33
2023-03-11T07:14:33.260Z,11.31
2023-03-11T07:17:02.582Z,11.54
2023-03-11T07:19:40.633Z,11.26
2023-03-11T07:22:09.688Z,11.62
2023-03-11T07:24:38.623Z,11.48
2023-03-11T07:27:07.680Z,11.64
2023-03-11T07:29:36.815Z,11.87
2023-03-11T07:32:06.591Z,12.08
2023-03-11T07:34:35.835Z,12.26
2023-03-11T07:37:06.593Z,12.20
2023-03-11T07:39:35.648Z,12.22
2023-03-11T07:42:06.188Z,12.30
2023-03-11T07:44:38.667Z,12.29
2023-03-11T07:47:08.149Z,12.32
2023-03-11T07:49:39.274Z,12.75
2023-03-11T07:52:10.063Z,13.26
2023-03-11T07:54:39.096Z,13.47
2023-03-11T07:57:09.569Z,13.53
2023-03-11T07:59:38.514Z,13.69
2023-03-11T08:02:07.628Z,14.23
2023-03-11T08:04:36.743Z,14.56
2023-03-11T08:07:05.725Z,14.92
2023-03-11T08:09:38.074Z,15.33
2023-03-11T08:12:07.712Z,15.82
2023-03-11T08:14:36.985Z,16.09
2023-03-11T08:17:06.279Z,15.80
2023-03-11T08:19:35.506Z,16.05
2023-03-11T08:22:05.059Z,16.23
2023-03-11T08:24:34.244Z,16.50
2023-03-11T08:27:04.889Z,16.77
2023-03-11T08:29:34.106Z,17.00
2023-03-11T08:32:04.932Z,17.06
2023-03-11T08:34:35.352Z,17.41
2023-03-11T08:37:04.804Z,17.26
2023-03-11T08:39:33.869Z,16.59
2023-03-11T08:42:04.570Z,16.47
2023-03-11T08:44:33.764Z,16.02
2023-03-11T08:47:03.292Z,15.85
2023-03-11T08:49:32.563Z,15.64
2023-03-11T08:52:02.875Z,15.81
2023-03-11T08:54:35.578Z,16.33
2023-03-11T08:57:06.239Z,16.53
2023-03-11T08:59:35.886Z,16.69
2023-03-11T09:02:05.023Z,17.21
2023-03-11T09:04:34.079Z,17.53
2023-03-11T09:07:03.049Z,17.46
2023-03-11T09:09:32.173Z,16.90
2023-03-11T09:12:01.246Z,16.85
2023-03-11T09:14:31.786Z,16.12
2023-03-11T09:17:00.696Z,15.96
2023-03-11T09:19:29.835Z,15.79
2023-03-11T09:22:01.668Z,15.21
2023-03-11T09:24:31.577Z,15.60
2023-03-11T09:27:00.661Z,15.51
2023-03-11T09:29:31.082Z,15.81
2023-03-11T09:32:00.861Z,16.43
2023-03-11T09:34:29.946Z,16.84
2023-03-11T09:36:59.111Z,17.45
2023-03-11T09:39:28.249Z,17.31
2023-03-11T09:41:59.520Z,17.48
2023-03-11T09:44:38.785Z,17.40
2023-03-11T09:47:31.845Z,16.72
2023-03-11T09:50:15.376Z,16.55
2023-03-11T09:52:51.346Z,16.25
2023-03-11T09:55:34.121Z,16.51
2023-03-11T09:58:08.748Z,16.98
2023-03-11T10:00:39.941Z,17.21
2023-03-11T10:03:20.186Z,16.77
2023-03-11T10:05:49.785Z,16.58
2023-03-11T10:08:26.427Z,16.48
2023-03-11T10:11:08.712Z,16.66
2023-03-11T10:13:46.793Z,16.72
2023-03-11T10:16:25.160Z,16.71
2023-03-11T10:19:01.483Z,16.29
2023-03-11T10:21:43.439Z,16.19
2023-03-11T10:24:25.158Z,16.01
2023-03-11T10:26:59.599Z,15.92
2023-03-11T10:29:32.410Z,15.82
2023-03-11T10:32:12.152Z,15.45
2023-03-11T10:34:45.326Z,15.58
2023-03-11T10:37:16.447Z,15.67
2023-03-11T10:39:48.304Z,15.79
2023-03-11T10:42:22.711Z,15.72
2023-03-11T10:44:52.618Z,15.82
2023-03-11T10:47:24.925Z,15.75
2023-03-11T10:49:54.130Z,15.53
2023-03-11T10:52:23.162Z,15.53
2023-03-11T10:55:03.218Z,15.54
2023-03-11T10:57:36.107Z,15.49
2023-03-11T11:00:17.458Z,15.55
2023-03-11T11:02:58.311Z,16.15
2023-03-11T11:05:32.923Z,16.80
2023-03-11T11:08:08.189Z,17.32
2023-03-11T11:10:50.066Z,17.73
2023-03-11T11:13:21.297Z,18.06
2023-03-11T11:15:59.092Z,18.32
2023-03-11T11:18:32.538Z,17.92
2023-03-11T11:21:05.971Z,17.65
2023-03-11T11:23:42.264Z,17.40
2023-03-11T11:26:19.273Z,17.12
2023-03-11T11:28:48.104Z,17.01
2023-03-11T11:31:24.546Z,17.19
2023-03-11T11:33:56.164Z,17.56
2023-03-11T11:36:31.275Z,17.72
2023-03-11T11:39:03.350Z,17.47
2023-03-11T11:41:35.008Z,17.74
2023-03-11T11:44:07.470Z,17.38
2023-03-11T11:46:42.112Z,18.13
2023-03-11T11:49:21.018Z,18.48
2023-03-11T11:51:53.679Z,18.62
2023-03-11T11:54:29.427Z,18.99
2023-03-11T11:57:00.285Z,19.18
2023-03-11T11:59:30.912Z,19.04
2023-03-11T12:02:20.800Z,19.33
2023-03-11T12:04:56.368Z,19.73
2023-03-11T12:07:40.024Z,20.09
2023-03-11T12:10:23.638Z,20.26
2023-03-11T12:13:13.971Z,20.53
2023-03-11T12:15:48.583Z,20.27
2023-03-11T12:18:24.076Z,20.00
2023-03-11T12:20:57.142Z,19.69
2023-03-11T12:23:39.269Z,19.17
2023-03-11T12:26:17.322Z,18.63
2023-03-11T12:28:52.950Z,18.10
2023-03-11T12:31:24.679Z,18.02
2023-03-11T12:33:59.095Z,17.73
2023-03-11T12:36:34.281Z,17.50
2023-03-11T12:39:06.885Z,17.21
2023-03-11T12:41:40.124Z,16.79
2023-03-11T12:44:25.894Z,15.71
2023-03-11T12:47:04.549Z,14.96
2023-03-11T12:49:35.341Z,14.49
2023-03-11T12:52:20.447Z,13.54
2023-03-11T12:54:50.710Z,13.53
2023-03-11T12:57:37.050Z,13.23
2023-03-11T13:00:30.793Z,12.97
2023-03-11T13:03:33.884Z,12.94
2023-03-11T13:06:22.694Z,12.70
2023-03-11T13:08:54.995Z,12.45
2023-03-11T13:11:46.362Z,12.24
2023-03-11T13:14:33.091Z,12.11
2023-03-11T13:17:27.114Z,11.99
2023-03-11T13:19:57.812Z,11.84
2023-03-11T13:23:16.441Z,11.75
2023-03-11T13:26:11.475Z,11.68
2023-03-11T13:28:54.343Z,11.72
2023-03-11T13:31:40.624Z,11.84
2023-03-11T13:34:17.070Z,11.98
2023-03-11T13:37:01.834Z,12.06
2023-03-11T13:39:55.193Z,12.07
2023-03-11T13:42:31.598Z,12.05
2023-03-11T13:45:01.542Z,12.25
2023-03-11T13:47:33.842Z,12.38
2023-03-11T13:50:07.043Z,12.31
2023-03-11T13:52:37.079Z,12.45
2023-03-11T13:55:08.915Z,12.69
2023-03-11T13:57:39.641Z,12.89
2023-03-11T14:00:17.998Z,12.98
2023-03-11T14:02:51.373Z,13.00
2023-03-11T14:05:24.979Z,12.95
2023-03-11T14:07:54.461Z,12.90
2023-03-11T14:10:29.881Z,13.09
2023-03-11T14:13:17.562Z,13.04
2023-03-11T14:15:53.656Z,13.14
2023-03-11T14:18:35.034Z,13.21
2023-03-11T14:21:05.438Z,13.19
2023-03-11T14:23:37.880Z,13.20
2023-03-11T14:26:09.941Z,13.06
2023-03-11T14:28:45.116Z,12.95
2023-03-11T14:31:44.256Z,13.00
2023-03-11T14:34:18.220Z,12.99
2023-03-11T14:36:51.327Z,12.93
2023-03-11T14:39:35.749Z,12.78
2023-03-11T14:42:09.171Z,12.66
2023-03-11T14:44:45.377Z,12.65
2023-03-11T14:47:20.952Z,12.50
2023-03-11T14:49:55.055Z,12.35
2023-03-11T14:52:38.873Z,12.08
2023-03-11T14:55:14.445Z,11.80
2023-03-11T14:57:50.507Z,11.45
2023-03-11T15:00:28.692Z,11.19
2023-03-11T15:03:04.094Z,11.04
2023-03-11T15:05:43.317Z,10.91
2023-03-11T15:08:12.878Z,10.80
2023-03-11T15:10:42.009Z,10.74
2023-03-11T15:13:16.829Z,10.71
2023-03-11T15:16:00.956Z,10.68
2023-03-11T15:18:33.660Z,10.62
2023-03-11T15:21:08.456Z,10.63
2023-03-11T15:23:44.247Z,10.45
2023-03-11T15:26:23.734Z,10.34
2023-03-11T15:29:01.593Z,10.06
2023-03-11T15:31:37.945Z,9.90
2023-03-11T15:34:25.817Z,9.68
2023-03-11T15:37:20.824Z,9.40
2023-03-11T15:39:53.543Z,9.29
2023-03-11T15:42:27.039Z,9.18
2023-03-11T15:45:13.103Z,9.07
2023-03-11T15:47:46.077Z,8.92
2023-03-11T15:50:50.615Z,9.00
2023-03-11T15:53:26.538Z,8.68
2023-03-11T15:56:07.868Z,8.60
2023-03-11T15:58:41.622Z,8.16
2023-03-11T16:01:13.801Z,7.95
2023-03-11T16:03:47.126Z,7.83
2023-03-11T16:06:21.511Z,7.77
2023-03-11T16:08:53.123Z,7.59
2023-03-11T16:11:25.394Z,7.47
2023-03-11T16:13:58.048Z,7.31
2023-03-11T16:17:25.395Z,7.17
2023-03-11T16:19:59.633Z,7.18
2023-03-11T16:22:35.570Z,7.15
2023-03-11T16:25:09.303Z,7.10
2023-03-11T16:27:41.196Z,6.97
2023-03-11T16:30:16.712Z,7.05
2023-03-11T16:32:48.763Z,6.81
2023-03-11T16:35:23.347Z,6.83
2023-03-11T16:37:56.103Z,6.84
2023-03-11T16:40:32.424Z,6.63
2023-03-11T16:43:08.192Z,6.65
2023-03-11T16:45:41.985Z,6.73
2023-03-11T16:48:13.913Z,6.64
2023-03-11T16:50:47.965Z,6.54
2023-03-11T16:53:19.784Z,6.31
2023-03-11T16:55:52.583Z,6.47
2023-03-11T16:58:26.080Z,6.36
2023-03-11T17:01:27.848Z,6.43
2023-03-11T17:04:10.275Z,6.35
2023-03-11T17:06:46.409Z,6.19
2023-03-11T17:09:19.927Z,6.07
2023-03-11T17:11:54.498Z,6.11
2023-03-11T17:14:26.999Z,6.07
2023-03-11T17:16:59.542Z,5.97
2023-03-11T17:19:34.901Z,5.93
2023-03-11T17:22:11.952Z,6.04
2023-03-11T17:24:44.598Z,5.88
2023-03-11T17:27:19.070Z,5.91
2023-03-11T17:29:54.940Z,5.88
2023-03-11T17:32:29.154Z,5.97
2023-03-11T17:35:01.072Z,6.03
2023-03-11T17:37:37.350Z,6.07
2023-03-11T17:40:10.518Z,5.89
2023-03-11T17:42:44.225Z,6.05
2023-03-11T17:45:40.550Z,5.92
2023-03-11T17:48:11.719Z,5.89
2023-03-11T17:50:44.326Z,5.66
2023-03-11T17:53:18.718Z,5.82
2023-03-11T17:55:50.439Z,5.81
2023-03-11T17:58:26.909Z,5.86
2023-03-11T18:00:59.805Z,5.72
2023-03-11T18:03:31.314Z,5.66
2023-03-11T18:06:02.293Z,5.72
2023-03-11T18:08:34.015Z,5.66
2023-03-11T18:11:05.383Z,5.70
2023-03-11T18:13:35.697Z,5.66
2023-03-11T18:16:07.482Z,5.74
2023-03-11T18:18:37.915Z,5.73
2023-03-11T18:21:09.063Z,5.62
2023-03-11T18:23:40.303Z,5.52
2023-03-11T18:26:12.012Z,5.33
2023-03-11T18:28:41.909Z,5.23
2023-03-11T18:31:12.417Z,5.19
2023-03-11T18:33:42.491Z,5.12
2023-03-11T18:36:16.238Z,5.14
2023-03-11T18:38:47.862Z,5.13
2023-03-11T18:41:17.113Z,5.07
2023-03-11T18:43:46.162Z,5.04
2023-03-11T18:46:17.004Z,5.06
2023-03-11T18:48:46.699Z,4.99
2023-03-11T18:51:15.663Z,5.16
2023-03-11T18:53:44.702Z,5.17
2023-03-11T18:56:17.325Z,5.16
2023-03-11T18:58:47.024Z,5.16
2023-03-11T19:01:18.347Z,5.12
2023-03-11T19:03:51.950Z,5.12
2023-03-11T19:06:21.840Z,5.16
2023-03-11T19:08:51.502Z,5.15
2023-03-11T19:11:23.537Z,5.24
2023-03-11T19:13:53.310Z,5.25
2023-03-11T19:16:24.403Z,5.27
2023-03-11T19:18:55.401Z,5.28
2023-03-11T19:21:26.155Z,5.27
2023-03-11T19:23:55.541Z,5.31
2023-03-11T19:26:43.116Z,5.17
2023-03-11T19:29:14.811Z,5.25
2023-03-11T19:31:46.076Z,5.22
2023-03-11T19:34:15.351Z,5.02
2023-03-11T19:36:44.473Z,5.10
2023-03-11T19:39:13.724Z,5.03
2023-03-11T19:41:44.535Z,4.99
2023-03-11T19:44:13.882Z,5.07
2023-03-11T19:46:43.139Z,5.15
2023-03-11T19:49:12.273Z,5.11
2023-03-11T19:51:50.093Z,5.12
2023-03-11T19:54:19.845Z,5.12
2023-03-11T19:56:51.738Z,5.00
2023-03-11T19:59:20.960Z,4.93
2023-03-11T20:01:50.085Z,4.87
2023-03-11T20:04:22.979Z,4.97
2023-03-11T20:06:52.914Z,4.96
2023-03-11T20:09:22.441Z,4.91
2023-03-11T20:11:52.891Z,4.91
2023-03-11T20:14:24.949Z,4.93
2023-03-11T20:16:54.085Z,4.90
2023-03-11T20:19:24.908Z,4.92
2023-03-11T20:21:53.936Z,4.73
2023-03-11T20:24:23.390Z,4.63
2023-03-11T20:26:53.819Z,4.71
2023-03-11T20:29:22.894Z,4.68
2023-03-11T20:31:52.639Z,4.68
2023-03-11T20:34:21.773Z,4.58
2023-03-11T20:36:51.292Z,4.58
2023-03-11T20:39:21.007Z,4.56
2023-03-11T20:41:50.065Z,4.60
2023-03-11T20:44:20.758Z,4.59
2023-03-11T20:46:50.420Z,4.60
2023-03-11T20:49:19.812Z,4.83
2023-03-11T20:51:49.504Z,4.77
2023-03-11T20:54:18.658Z,4.60
2023-03-11T20:56:49.395Z,4.66
2023-03-11T20:59:20.012Z,4.51
2023-03-11T21:01:49.497Z,4.55
2023-03-11T21:04:19.022Z,4.60
2023-03-11T21:06:49.933Z,4.41
2023-03-11T21:09:19.282Z,4.40
2023-03-11T21:11:48.660Z,4.43
2023-03-11T21:14:20.210Z,4.41
2023-03-11T21:16:49.857Z,4.36
2023-03-11T21:19:19.046Z,4.33
2023-03-11T21:21:48.441Z,4.45
2023-03-11T21:24:17.624Z,4.43
2023-03-11T21:26:46.800Z,4.42
2023-03-11T21:29:16.034Z,4.39
2023-03-11T21:31:46.764Z,4.42
2023-03-11T21:34:16.007Z,4.46
2023-03-11T21:36:45.115Z,4.40
2023-03-11T21:39:15.513Z,4.30
2023-03-11T21:41:44.590Z,4.21
2023-03-11T21:44:14.068Z,4.19
2023-03-11T21:46:43.200Z,4.23
2023-03-11T21:49:13.897Z,4.07
2023-03-11T21:51:43.261Z,4.07
2023-03-11T21:54:12.944Z,4.08
2023-03-11T21:56:42.903Z,3.87
2023-03-11T21:59:12.208Z,3.93
2023-03-11T22:01:44.525Z,3.68
2023-03-11T22:04:15.568Z,3.65
2023-03-11T22:06:44.847Z,3.58
2023-03-11T22:09:14.279Z,3.70
2023-03-11T22:11:43.537Z,3.60
2023-03-11T22:14:12.762Z,3.62
2023-03-11T22:16:42.324Z,3.55
2023-03-11T22:19:11.603Z,3.51
2023-03-11T22:21:42.877Z,3.52
2023-03-11T22:24:12.471Z,3.42
2023-03-11T22:26:42.047Z,3.44
2023-03-11T22:29:13.557Z,3.49
2023-03-11T22:31:43.219Z,3.43
2023-03-11T22:34:12.879Z,3.44
2023-03-11T22:36:43.565Z,3.33
2023-03-11T22:39:12.693Z,3.27
2023-03-11T22:41:41.847Z,3.16
2023-03-11T22:44:11.080Z,3.18
2023-03-11T22:46:40.569Z,3.20
2023-03-11T22:49:09.586Z,3.11
2023-03-11T22:51:38.733Z,3.12
2023-03-11T22:54:09.394Z,3.05
2023-03-11T22:56:38.572Z,3.06
2023-03-11T22:59:07.571Z,3.06
2023-03-11T23:01:36.704Z,3.13
2023-03-11T23:04:06.206Z,3.14
2023-03-11T23:06:35.477Z,3.06
2023-03-11T23:09:05.682Z,3.06
2023-03-11T23:11:36.315Z,3.08
2023-03-11T23:14:05.417Z,3.11
2023-03-11T23:16:34.594Z,3.17
2023-03-11T23:19:07.446Z,3.21
2023-03-11T23:21:37.069Z,3.19
2023-03-11T23:24:09.217Z,2.99
2023-03-11T23:26:40.055Z,2.98
2023-03-11T23:29:09.418Z,2.89
2023-03-11T23:31:38.373Z,2.87
2023-03-11T23:34:08.410Z,2.88
2023-03-11T23:36:37.604Z,2.93
2023-03-11T23:39:06.962Z,2.96
2023-03-11T23:41:36.801Z,2.93
2023-03-11T23:44:07.712Z,2.95
2023-03-11T23:46:36.767Z,3.02
2023-03-11T23:49:05.854Z,3.02
2023-03-11T23:51:34.795Z,3.02
2023-03-11T23:54:04.120Z,2.94
2023-03-11T23:56:33.235Z,2.89
2023-03-11T23:59:02.299Z,2.97
